sensor_id;sensor_type;location;lat;lon;timestamp;pressure;altitude;pressure_sealevel;temperature;humidity
45523;BME280;31254;51.680;5.394;2023-03-03T00:01:44;102479.53;;;0.68;78.66
45523;BME280;31254;51.680;5.394;2023-03-03T00:04:13;102509.63;;;0.80;78.12
45523;BME280;31254;51.680;5.394;2023-03-03T00:06:40;102484.94;;;0.67;77.97
45523;BME280;31254;51.680;5.394;2023-03-03T00:09:07;102488.47;;;0.69;77.72
45523;BME280;31254;51.680;5.394;2023-03-03T00:11:33;102508.72;;;0.79;77.61
45523;BME280;31254;51.680;5.394;2023-03-03T00:14:00;102515.16;;;0.75;77.81
45523;BME280;31254;51.680;5.394;2023-03-03T00:18:58;102484.91;;;0.68;77.55
45523;BME280;31254;51.680;5.394;2023-03-03T00:21:30;102506.56;;;0.92;77.49
45523;BME280;31254;51.680;5.394;2023-03-03T00:24:14;102510.28;;;0.88;77.55
45523;BME280;31254;51.680;5.394;2023-03-03T00:26:47;102505.72;;;0.90;77.64
45523;BME280;31254;51.680;5.394;2023-03-03T00:29:25;102484.63;;;0.76;77.41
45523;BME280;31254;51.680;5.394;2023-03-03T00:31:53;102510.25;;;0.89;77.54
45523;BME280;31254;51.680;5.394;2023-03-03T00:34:25;102510.19;;;0.91;77.94
45523;BME280;31254;51.680;5.394;2023-03-03T00:36:58;102462.69;;;0.63;77.94
45523;BME280;31254;51.680;5.394;2023-03-03T00:41:57;102486.09;;;0.88;77.88
45523;BME280;31254;51.680;5.394;2023-03-03T00:44:41;102505.38;;;1.02;77.37
45523;BME280;31254;51.680;5.394;2023-03-03T00:47:35;102507.06;;;1.05;77.71
45523;BME280;31254;51.680;5.394;2023-03-03T00:52:38;102512.16;;;1.14;77.27
45523;BME280;31254;51.680;5.394;2023-03-03T00:55:06;102520.91;;;1.21;77.02
45523;BME280;31254;51.680;5.394;2023-03-03T00:57:33;102507.38;;;1.24;76.71
45523;BME280;31254;51.680;5.394;2023-03-03T01:00:00;102504.78;;;1.21;76.45
45523;BME280;31254;51.680;5.394;2023-03-03T01:02:26;102515.28;;;1.28;76.44
45523;BME280;31254;51.680;5.394;2023-03-03T01:04:53;102520.44;;;1.36;76.96
45523;BME280;31254;51.680;5.394;2023-03-03T01:07:23;102491.31;;;1.21;76.55
45523;BME280;31254;51.680;5.394;2023-03-03T01:09:52;102511.81;;;1.25;76.60
45523;BME280;31254;51.680;5.394;2023-03-03T01:12:24;102508.78;;;1.36;77.02
45523;BME280;31254;51.680;5.394;2023-03-03T01:14:51;102525.00;;;1.33;77.49
45523;BME280;31254;51.680;5.394;2023-03-03T01:17:22;102520.56;;;1.32;77.41
45523;BME280;31254;51.680;5.394;2023-03-03T01:19:49;102527.63;;;1.34;77.66
45523;BME280;31254;51.680;5.394;2023-03-03T01:22:18;102531.19;;;1.36;77.73
45523;BME280;31254;51.680;5.394;2023-03-03T01:24:45;102504.72;;;1.22;77.65
45523;BME280;31254;51.680;5.394;2023-03-03T01:27:13;102501.06;;;1.25;78.06
45523;BME280;31254;51.680;5.394;2023-03-03T01:29:39;102488.00;;;1.13;78.07
45523;BME280;31254;51.680;5.394;2023-03-03T01:32:11;102538.22;;;1.40;78.28
45523;BME280;31254;51.680;5.394;2023-03-03T01:34:37;102509.22;;;1.22;78.29
45523;BME280;31254;51.680;5.394;2023-03-03T01:37:06;102522.41;;;1.30;78.50
45523;BME280;31254;51.680;5.394;2023-03-03T01:39:33;102530.22;;;1.37;78.34
45523;BME280;31254;51.680;5.394;2023-03-03T01:42:02;102371.13;;;0.41;78.74
45523;BME280;31254;51.680;5.394;2023-03-03T01:44:33;102502.09;;;1.21;78.68
45523;BME280;31254;51.680;5.394;2023-03-03T01:47:03;102533.91;;;1.35;79.21
45523;BME280;31254;51.680;5.394;2023-03-03T01:49:35;102535.81;;;1.31;79.03
45523;BME280;31254;51.680;5.394;2023-03-03T01:52:12;102467.47;;;0.82;79.89
45523;BME280;31254;51.680;5.394;2023-03-03T01:54:47;102540.44;;;1.26;79.63
45523;BME280;31254;51.680;5.394;2023-03-03T01:57:22;102527.41;;;1.14;79.19
45523;BME280;31254;51.680;5.394;2023-03-03T01:59:51;102537.91;;;1.21;79.04
45523;BME280;31254;51.680;5.394;2023-03-03T02:02:19;102549.59;;;1.20;80.23
45523;BME280;31254;51.680;5.394;2023-03-03T02:04:49;102541.72;;;1.14;79.35
45523;BME280;31254;51.680;5.394;2023-03-03T02:07:19;102546.19;;;1.15;79.48
45523;BME280;31254;51.680;5.394;2023-03-03T02:09:57;102545.28;;;1.15;80.03
45523;BME280;31254;51.680;5.394;2023-03-03T02:12:31;102536.41;;;1.13;79.87
45523;BME280;31254;51.680;5.394;2023-03-03T02:14:59;102540.75;;;1.17;79.76
45523;BME280;31254;51.680;5.394;2023-03-03T02:17:28;102543.53;;;1.14;79.86
45523;BME280;31254;51.680;5.394;2023-03-03T02:20:06;102540.00;;;1.12;79.74
45523;BME280;31254;51.680;5.394;2023-03-03T02:22:52;102504.94;;;0.86;79.65
45523;BME280;31254;51.680;5.394;2023-03-03T02:26:18;102517.31;;;0.92;79.49
45523;BME280;31254;51.680;5.394;2023-03-03T02:28:37;102541.88;;;1.09;80.16
45523;BME280;31254;51.680;5.394;2023-03-03T02:31:08;102514.72;;;0.89;80.65
45523;BME280;31254;51.680;5.394;2023-03-03T02:33:43;102525.81;;;1.06;80.55
45523;BME280;31254;51.680;5.394;2023-03-03T02:36:19;102548.03;;;1.13;80.61
45523;BME280;31254;51.680;5.394;2023-03-03T02:42:07;102546.00;;;1.20;79.70
45523;BME280;31254;51.680;5.394;2023-03-03T02:44:37;102537.09;;;1.19;79.96
45523;BME280;31254;51.680;5.394;2023-03-03T02:47:04;102541.59;;;1.19;80.60
45523;BME280;31254;51.680;5.394;2023-03-03T02:49:35;102494.94;;;0.91;80.22
45523;BME280;31254;51.680;5.394;2023-03-03T02:52:04;102539.63;;;1.24;80.20
45523;BME280;31254;51.680;5.394;2023-03-03T02:54:31;102493.84;;;0.97;79.92
45523;BME280;31254;51.680;5.394;2023-03-03T02:57:02;102478.75;;;0.93;80.15
45523;BME280;31254;51.680;5.394;2023-03-03T02:59:29;102478.84;;;0.90;80.37
45523;BME280;31254;51.680;5.394;2023-03-03T03:01:58;102535.22;;;1.21;80.73
45523;BME280;31254;51.680;5.394;2023-03-03T03:04:27;102535.25;;;1.20;80.72
45523;BME280;31254;51.680;5.394;2023-03-03T03:06:55;102540.59;;;1.21;80.45
45523;BME280;31254;51.680;5.394;2023-03-03T03:09:23;102546.06;;;1.18;80.27
45523;BME280;31254;51.680;5.394;2023-03-03T03:11:51;102517.72;;;1.08;80.12
45523;BME280;31254;51.680;5.394;2023-03-03T03:14:17;102525.91;;;1.03;80.40
45523;BME280;31254;51.680;5.394;2023-03-03T03:16:44;102535.66;;;1.07;80.45
45523;BME280;31254;51.680;5.394;2023-03-03T03:19:11;102550.75;;;1.12;80.57
45523;BME280;31254;51.680;5.394;2023-03-03T03:21:38;102517.31;;;0.92;80.50
45523;BME280;31254;51.680;5.394;2023-03-03T03:24:05;102535.94;;;0.98;81.22
45523;BME280;31254;51.680;5.394;2023-03-03T03:26:32;102519.34;;;0.84;81.31
45523;BME280;31254;51.680;5.394;2023-03-03T03:29:00;102551.09;;;1.01;80.78
45523;BME280;31254;51.680;5.394;2023-03-03T03:31:27;102544.81;;;1.00;80.63
45523;BME280;31254;51.680;5.394;2023-03-03T03:33:54;102535.13;;;0.96;80.73
45523;BME280;31254;51.680;5.394;2023-03-03T03:36:21;102529.84;;;0.93;80.10
45523;BME280;31254;51.680;5.394;2023-03-03T03:38:47;102556.13;;;1.12;80.14
45523;BME280;31254;51.680;5.394;2023-03-03T03:41:14;102558.78;;;1.13;80.68
45523;BME280;31254;51.680;5.394;2023-03-03T03:43:41;102555.16;;;1.14;80.26
45523;BME280;31254;51.680;5.394;2023-03-03T03:46:10;102554.31;;;1.14;80.50
45523;BME280;31254;51.680;5.394;2023-03-03T03:48:37;102547.25;;;1.09;80.84
45523;BME280;31254;51.680;5.394;2023-03-03T03:51:03;102520.84;;;0.94;80.81
45523;BME280;31254;51.680;5.394;2023-03-03T03:53:31;102541.97;;;1.06;81.05
45523;BME280;31254;51.680;5.394;2023-03-03T03:55:57;102537.66;;;1.01;80.73
45523;BME280;31254;51.680;5.394;2023-03-03T03:58:24;102554.31;;;1.14;80.99
45523;BME280;31254;51.680;5.394;2023-03-03T04:00:51;102556.94;;;1.15;80.79
45523;BME280;31254;51.680;5.394;2023-03-03T04:03:18;102525.91;;;1.03;81.40
45523;BME280;31254;51.680;5.394;2023-03-03T04:05:45;102548.88;;;1.15;80.88
45523;BME280;31254;51.680;5.394;2023-03-03T04:08:16;102544.41;;;1.14;81.19
45523;BME280;31254;51.680;5.394;2023-03-03T04:10:43;102474.78;;;0.77;81.05
45523;BME280;31254;51.680;5.394;2023-03-03T04:13:09;102424.69;;;0.46;81.05
45523;BME280;31254;51.680;5.394;2023-03-03T04:15:38;102549.75;;;1.16;81.24
45523;BME280;31254;51.680;5.394;2023-03-03T04:18:07;102552.16;;;1.25;81.88
45523;BME280;31254;51.680;5.394;2023-03-03T04:20:34;102549.50;;;1.23;81.85
45523;BME280;31254;51.680;5.394;2023-03-03T04:23:03;102519.59;;;1.06;81.46
45523;BME280;31254;51.680;5.394;2023-03-03T04:25:32;102466.69;;;0.78;81.13
45523;BME280;31254;51.680;5.394;2023-03-03T04:27:58;102554.50;;;1.36;81.19
45523;BME280;31254;51.680;5.394;2023-03-03T04:30:27;102542.28;;;1.25;81.41
45523;BME280;31254;51.680;5.394;2023-03-03T04:32:54;102570.63;;;1.36;82.00
45523;BME280;31254;51.680;5.394;2023-03-03T04:35:21;102540.59;;;1.21;82.03
45523;BME280;31254;51.680;5.394;2023-03-03T04:37:47;102559.81;;;1.37;81.63
45523;BME280;31254;51.680;5.394;2023-03-03T04:40:14;102537.84;;;1.23;81.93
45523;BME280;31254;51.680;5.394;2023-03-03T04:42:42;102544.91;;;1.27;81.91
45523;BME280;31254;51.680;5.394;2023-03-03T04:45:09;102551.03;;;1.32;81.77
45523;BME280;31254;51.680;5.394;2023-03-03T04:47:36;102544.88;;;1.28;81.50
45523;BME280;31254;51.680;5.394;2023-03-03T04:50:03;102553.63;;;1.35;81.22
45523;BME280;31254;51.680;5.394;2023-03-03T04:52:30;102567.78;;;1.40;81.50
45523;BME280;31254;51.680;5.394;2023-03-03T04:54:57;102541.41;;;1.25;81.26
45523;BME280;31254;51.680;5.394;2023-03-03T04:57:24;102544.81;;;1.30;81.50
45523;BME280;31254;51.680;5.394;2023-03-03T04:59:50;102580.38;;;1.40;81.56
45523;BME280;31254;51.680;5.394;2023-03-03T05:02:17;102563.47;;;1.36;81.92
45523;BME280;31254;51.680;5.394;2023-03-03T05:04:51;102573.34;;;1.34;82.40
45523;BME280;31254;51.680;5.394;2023-03-03T05:07:18;102571.63;;;1.33;81.70
45523;BME280;31254;51.680;5.394;2023-03-03T05:09:46;102562.91;;;1.25;81.73
45523;BME280;31254;51.680;5.394;2023-03-03T05:12:15;102581.38;;;1.36;81.87
45523;BME280;31254;51.680;5.394;2023-03-03T05:14:44;102558.63;;;1.18;81.61
45523;BME280;31254;51.680;5.394;2023-03-03T05:17:11;102588.53;;;1.37;82.45
45523;BME280;31254;51.680;5.394;2023-03-03T05:19:38;102515.53;;;0.93;81.75
45523;BME280;31254;51.680;5.394;2023-03-03T05:22:05;102570.13;;;1.23;82.11
45523;BME280;31254;51.680;5.394;2023-03-03T05:24:32;102576.28;;;1.28;82.26
45523;BME280;31254;51.680;5.394;2023-03-03T05:26:58;102557.69;;;1.20;82.43
45523;BME280;31254;51.680;5.394;2023-03-03T05:29:25;102576.06;;;1.34;82.21
45523;BME280;31254;51.680;5.394;2023-03-03T05:31:52;102581.25;;;1.40;81.79
45523;BME280;31254;51.680;5.394;2023-03-03T05:34:19;102581.19;;;1.42;82.31
45523;BME280;31254;51.680;5.394;2023-03-03T05:36:45;102241.78;;;-0.61;81.75
45523;BME280;31254;51.680;5.394;2023-03-03T05:39:14;102574.84;;;1.44;81.88
45523;BME280;31254;51.680;5.394;2023-03-03T05:41:41;102549.38;;;1.28;81.96
45523;BME280;31254;51.680;5.394;2023-03-03T05:44:10;102585.50;;;1.48;81.93
45523;BME280;31254;51.680;5.394;2023-03-03T05:46:39;102579.13;;;1.50;82.36
45523;BME280;31254;51.680;5.394;2023-03-03T05:49:06;102530.66;;;1.25;82.21
45523;BME280;31254;51.680;5.394;2023-03-03T05:51:32;102586.28;;;1.51;81.85
45523;BME280;31254;51.680;5.394;2023-03-03T05:54:01;102564.19;;;1.41;82.19
45523;BME280;31254;51.680;5.394;2023-03-03T05:56:30;102581.78;;;1.52;81.96
45523;BME280;31254;51.680;5.394;2023-03-03T05:58:57;102583.47;;;1.56;82.33
45523;BME280;31254;51.680;5.394;2023-03-03T06:01:24;102586.06;;;1.59;82.16
45523;BME280;31254;51.680;5.394;2023-03-03T06:03:53;102564.00;;;1.48;81.62
45523;BME280;31254;51.680;5.394;2023-03-03T06:06:19;102584.03;;;1.66;81.71
45523;BME280;31254;51.680;5.394;2023-03-03T06:08:48;102589.41;;;1.66;81.63
45523;BME280;31254;51.680;5.394;2023-03-03T06:11:17;102579.88;;;1.55;81.22
45523;BME280;31254;51.680;5.394;2023-03-03T06:13:44;102587.69;;;1.63;81.42
45523;BME280;31254;51.680;5.394;2023-03-03T06:16:11;102600.97;;;1.69;81.14
45523;BME280;31254;51.680;5.394;2023-03-03T06:18:40;102586.09;;;1.57;81.59
45523;BME280;31254;51.680;5.394;2023-03-03T06:21:07;102604.63;;;1.67;81.55
45523;BME280;31254;51.680;5.394;2023-03-03T06:23:33;102586.47;;;1.45;82.49
45523;BME280;31254;51.680;5.394;2023-03-03T06:26:00;102619.94;;;1.64;81.64
45523;BME280;31254;51.680;5.394;2023-03-03T06:28:27;102624.44;;;1.64;81.80
45523;BME280;31254;51.680;5.394;2023-03-03T06:30:55;102619.88;;;1.66;81.83
45523;BME280;31254;51.680;5.394;2023-03-03T06:33:24;102420.75;;;0.28;81.55
45523;BME280;31254;51.680;5.394;2023-03-03T06:35:52;102620.84;;;1.63;82.55
45523;BME280;31254;51.680;5.394;2023-03-03T06:38:21;102584.06;;;1.36;81.99
45523;BME280;31254;51.680;5.394;2023-03-03T06:40:48;102582.28;;;1.36;82.24
45523;BME280;31254;51.680;5.394;2023-03-03T06:43:15;102637.81;;;1.67;81.89
45523;BME280;31254;51.680;5.394;2023-03-03T06:45:41;102639.50;;;1.70;82.06
45523;BME280;31254;51.680;5.394;2023-03-03T06:48:14;102618.56;;;1.51;82.37
45523;BME280;31254;51.680;5.394;2023-03-03T06:50:41;102628.06;;;1.63;81.97
45523;BME280;31254;51.680;5.394;2023-03-03T06:53:15;102636.72;;;1.73;82.36
45523;BME280;31254;51.680;5.394;2023-03-03T06:55:44;102658.94;;;1.79;81.75
45523;BME280;31254;51.680;5.394;2023-03-03T06:58:17;102650.84;;;1.79;82.02
45523;BME280;31254;51.680;5.394;2023-03-03T07:00:57;102648.88;;;1.85;81.65
45523;BME280;31254;51.680;5.394;2023-03-03T07:03:35;102639.13;;;1.82;81.91
45523;BME280;31254;51.680;5.394;2023-03-03T07:06:33;102652.38;;;1.88;81.22
45523;BME280;31254;51.680;5.394;2023-03-03T07:09:36;102657.72;;;1.90;81.97
45523;BME280;31254;51.680;5.394;2023-03-03T07:12:14;102661.34;;;1.89;81.49
45523;BME280;31254;51.680;5.394;2023-03-03T07:14:48;102659.56;;;1.88;81.95
45523;BME280;31254;51.680;5.394;2023-03-03T07:17:23;102644.66;;;1.77;81.75
45523;BME280;31254;51.680;5.394;2023-03-03T07:19:50;102651.53;;;1.86;81.53
45523;BME280;31254;51.680;5.394;2023-03-03T07:22:24;102450.34;;;0.56;81.77
45523;BME280;31254;51.680;5.394;2023-03-03T07:24:56;102667.50;;;1.92;82.18
45523;BME280;31254;51.680;5.394;2023-03-03T07:27:31;102666.63;;;1.92;81.98
45523;BME280;31254;51.680;5.394;2023-03-03T07:30:23;102670.22;;;1.91;82.21
45523;BME280;31254;51.680;5.394;2023-03-03T07:32:55;102676.38;;;1.94;81.91
45523;BME280;31254;51.680;5.394;2023-03-03T07:35:39;102682.69;;;1.95;82.37
45523;BME280;31254;51.680;5.394;2023-03-03T07:41:12;102684.38;;;1.97;81.67
45523;BME280;31254;51.680;5.394;2023-03-03T07:48:51;102687.81;;;2.03;82.14
45523;BME280;31254;51.680;5.394;2023-03-03T07:56:57;102697.59;;;2.05;82.44
45523;BME280;31254;51.680;5.394;2023-03-03T07:59:34;102696.53;;;2.11;81.99
45523;BME280;31254;51.680;5.394;2023-03-03T08:02:05;102590.66;;;1.54;82.28
45523;BME280;31254;51.680;5.394;2023-03-03T08:04:49;102687.41;;;2.15;82.51
45523;BME280;31254;51.680;5.394;2023-03-03T08:07:22;102698.03;;;2.19;82.34
45523;BME280;31254;51.680;5.394;2023-03-03T08:12:41;102700.56;;;2.24;82.33
45523;BME280;31254;51.680;5.394;2023-03-03T08:15:17;102693.47;;;2.48;84.85
45523;BME280;31254;51.680;5.394;2023-03-03T08:17:45;102688.38;;;2.39;84.44
45523;BME280;31254;51.680;5.394;2023-03-03T08:22:54;102687.69;;;2.34;83.10
45523;BME280;31254;51.680;5.394;2023-03-03T08:25:23;102671.63;;;2.31;82.90
45523;BME280;31254;51.680;5.394;2023-03-03T08:27:50;102714.03;;;2.51;82.80
45523;BME280;31254;51.680;5.394;2023-03-03T08:30:16;102721.09;;;2.55;82.67
45523;BME280;31254;51.680;5.394;2023-03-03T08:32:45;102726.56;;;2.52;82.53
45523;BME280;31254;51.680;5.394;2023-03-03T08:35:12;102725.03;;;2.45;82.56
45523;BME280;31254;51.680;5.394;2023-03-03T08:37:40;102728.44;;;2.50;82.06
45523;BME280;31254;51.680;5.394;2023-03-03T08:40:13;102709.44;;;2.54;84.74
45523;BME280;31254;51.680;5.394;2023-03-03T08:42:40;102683.88;;;2.66;85.20
45523;BME280;31254;51.680;5.394;2023-03-03T08:45:07;102712.69;;;2.64;84.43
45523;BME280;31254;51.680;5.394;2023-03-03T08:47:34;102723.44;;;2.66;84.64
45523;BME280;31254;51.680;5.394;2023-03-03T08:50:03;102721.75;;;2.62;84.44
45523;BME280;31254;51.680;5.394;2023-03-03T08:52:32;102717.19;;;2.64;83.52
45523;BME280;31254;51.680;5.394;2023-03-03T08:54:59;102721.34;;;2.74;84.70
45523;BME280;31254;51.680;5.394;2023-03-03T08:57:26;102733.66;;;2.81;83.90
45523;BME280;31254;51.680;5.394;2023-03-03T08:59:53;102721.19;;;2.79;83.36
45523;BME280;31254;51.680;5.394;2023-03-03T09:02:19;102694.97;;;2.57;83.37
45523;BME280;31254;51.680;5.394;2023-03-03T09:04:46;102734.59;;;2.80;83.06
45523;BME280;31254;51.680;5.394;2023-03-03T09:07:15;102750.66;;;2.83;82.78
45523;BME280;31254;51.680;5.394;2023-03-03T09:09:42;102743.53;;;2.82;82.78
45523;BME280;31254;51.680;5.394;2023-03-03T09:12:18;102740.72;;;2.85;83.16
45523;BME280;31254;51.680;5.394;2023-03-03T09:14:45;102749.38;;;2.95;82.68
45523;BME280;31254;51.680;5.394;2023-03-03T09:17:34;102744.56;;;3.03;82.58
45523;BME280;31254;51.680;5.394;2023-03-03T09:20:16;102742.47;;;3.11;82.85
45523;BME280;31254;51.680;5.394;2023-03-03T09:22:48;102728.13;;;3.11;82.36
45523;BME280;31254;51.680;5.394;2023-03-03T09:25:41;102743.50;;;3.33;81.57
45523;BME280;31254;51.680;5.394;2023-03-03T09:28:23;102739.81;;;3.35;82.34
45523;BME280;31254;51.680;5.394;2023-03-03T09:30:53;102742.44;;;3.37;81.54
45523;BME280;31254;51.680;5.394;2023-03-03T09:36:27;102706.13;;;3.22;81.61
45523;BME280;31254;51.680;5.394;2023-03-03T09:38:57;102723.06;;;3.25;81.96
45523;BME280;31254;51.680;5.394;2023-03-03T09:49:35;102753.78;;;3.46;81.91
45523;BME280;31254;51.680;5.394;2023-03-03T09:55:09;102747.81;;;3.62;81.91
45523;BME280;31254;51.680;5.394;2023-03-03T09:58:08;102755.00;;;3.85;81.74
45523;BME280;31254;51.680;5.394;2023-03-03T10:06:48;102754.59;;;3.96;81.27
45523;BME280;31254;51.680;5.394;2023-03-03T10:17:52;102737.47;;;4.19;79.84
45523;BME280;31254;51.680;5.394;2023-03-03T10:29:10;102755.03;;;4.73;79.29
45523;BME280;31254;51.680;5.394;2023-03-03T10:31:49;102751.25;;;4.78;78.57
45523;BME280;31254;51.680;5.394;2023-03-03T10:45:25;102757.47;;;5.41;77.26
45523;BME280;31254;51.680;5.394;2023-03-03T10:56:37;102756.56;;;5.61;76.95
45523;BME280;31254;51.680;5.394;2023-03-03T11:01:59;102743.00;;;6.01;75.66
45523;BME280;31254;51.680;5.394;2023-03-03T11:04:50;102734.63;;;6.06;75.73
45523;BME280;31254;51.680;5.394;2023-03-03T11:07:36;102742.16;;;6.37;75.25
45523;BME280;31254;51.680;5.394;2023-03-03T11:16:14;102736.66;;;6.73;74.58
45523;BME280;31254;51.680;5.394;2023-03-03T11:21:43;102734.78;;;6.75;74.34
45523;BME280;31254;51.680;5.394;2023-03-03T11:27:34;102739.31;;;6.92;73.96
45523;BME280;31254;51.680;5.394;2023-03-03T11:41:00;102717.63;;;7.59;71.83
45523;BME280;31254;51.680;5.394;2023-03-03T11:43:33;102724.16;;;7.88;71.37
45523;BME280;31254;51.680;5.394;2023-03-03T11:46:07;102712.94;;;7.95;71.12
45523;BME280;31254;51.680;5.394;2023-03-03T11:51:14;102707.16;;;7.85;70.62
45523;BME280;31254;51.680;5.394;2023-03-03T11:54:07;102719.44;;;7.76;70.88
45523;BME280;31254;51.680;5.394;2023-03-03T11:56:40;102645.97;;;7.12;70.76
45523;BME280;31254;51.680;5.394;2023-03-03T11:59:17;102709.41;;;7.61;70.58
45523;BME280;31254;51.680;5.394;2023-03-03T12:01:52;102704.31;;;7.55;70.66
45523;BME280;31254;51.680;5.394;2023-03-03T12:04:28;102719.56;;;7.57;70.66
45523;BME280;31254;51.680;5.394;2023-03-03T12:10:03;102716.13;;;7.20;71.52
45523;BME280;31254;51.680;5.394;2023-03-03T12:15:48;102706.97;;;7.72;70.71
45523;BME280;31254;51.680;5.394;2023-03-03T12:32:13;102687.44;;;8.13;68.91
45523;BME280;31254;51.680;5.394;2023-03-03T12:40:02;102683.31;;;8.06;69.18
45523;BME280;31254;51.680;5.394;2023-03-03T12:51:08;102675.75;;;8.73;68.06
45523;BME280;31254;51.680;5.394;2023-03-03T13:08:22;102668.00;;;8.35;67.51
45523;BME280;31254;51.680;5.394;2023-03-03T13:13:52;102653.28;;;8.70;67.27
45523;BME280;31254;51.680;5.394;2023-03-03T13:16:28;102631.91;;;8.92;67.16
45523;BME280;31254;51.680;5.394;2023-03-03T13:28:00;102652.25;;;8.87;66.41
45523;BME280;31254;51.680;5.394;2023-03-03T13:30:32;102647.94;;;8.68;66.27
45523;BME280;31254;51.680;5.394;2023-03-03T13:38:31;102644.97;;;9.30;65.11
45523;BME280;31254;51.680;5.394;2023-03-03T13:41:06;102537.91;;;8.58;65.44
45523;BME280;31254;51.680;5.394;2023-03-03T13:43:45;102644.19;;;9.14;65.52
45523;BME280;31254;51.680;5.394;2023-03-03T13:52:05;102634.34;;;8.83;66.45
45523;BME280;31254;51.680;5.394;2023-03-03T13:57:36;102637.16;;;8.81;66.41
45523;BME280;31254;51.680;5.394;2023-03-03T14:00:29;102629.69;;;8.85;66.50
45523;BME280;31254;51.680;5.394;2023-03-03T14:05:43;102632.38;;;8.70;65.14
45523;BME280;31254;51.680;5.394;2023-03-03T14:08:17;102644.41;;;8.66;64.37
45523;BME280;31254;51.680;5.394;2023-03-03T14:13:46;102636.88;;;8.86;63.41
45523;BME280;31254;51.680;5.394;2023-03-03T14:17:00;102631.63;;;8.97;63.88
45523;BME280;31254;51.680;5.394;2023-03-03T14:19:39;102623.75;;;9.07;64.76
45523;BME280;31254;51.680;5.394;2023-03-03T14:27:33;102622.34;;;8.56;66.07
45523;BME280;31254;51.680;5.394;2023-03-03T14:30:33;102625.34;;;8.52;66.65
45523;BME280;31254;51.680;5.394;2023-03-03T14:40:37;102617.44;;;8.92;64.95
45523;BME280;31254;51.680;5.394;2023-03-03T14:45:47;102611.72;;;9.11;64.76
45523;BME280;31254;51.680;5.394;2023-03-03T14:50:56;102613.75;;;8.93;65.45
45523;BME280;31254;51.680;5.394;2023-03-03T14:53:37;102612.56;;;8.83;64.90
45523;BME280;31254;51.680;5.394;2023-03-03T14:56:27;102609.38;;;8.90;65.03
45523;BME280;31254;51.680;5.394;2023-03-03T14:59:14;102604.31;;;8.84;64.96
45523;BME280;31254;51.680;5.394;2023-03-03T15:01:42;102601.50;;;8.86;64.55
45523;BME280;31254;51.680;5.394;2023-03-03T15:06:47;102599.66;;;8.86;64.45
45523;BME280;31254;51.680;5.394;2023-03-03T15:09:24;102590.22;;;8.77;64.89
45523;BME280;31254;51.680;5.394;2023-03-03T15:11:53;102586.22;;;8.69;64.66
45523;BME280;31254;51.680;5.394;2023-03-03T15:14:43;102594.38;;;8.54;64.87
45523;BME280;31254;51.680;5.394;2023-03-03T15:17:24;102589.19;;;8.50;65.26
45523;BME280;31254;51.680;5.394;2023-03-03T15:48:00;102561.22;;;9.20;62.48
45523;BME280;31254;51.680;5.394;2023-03-03T15:50:43;102566.00;;;9.16;61.64
45523;BME280;31254;51.680;5.394;2023-03-03T15:56:19;102567.00;;;9.01;62.82
45523;BME280;31254;51.680;5.394;2023-03-03T16:04:40;102565.13;;;8.72;62.74
45523;BME280;31254;51.680;5.394;2023-03-03T16:10:14;102567.56;;;8.63;63.23
45523;BME280;31254;51.680;5.394;2023-03-03T16:27:05;102572.34;;;8.13;63.08
45523;BME280;31254;51.680;5.394;2023-03-03T16:30:05;102574.84;;;8.01;63.79
45523;BME280;31254;51.680;5.394;2023-03-03T16:40:26;102582.88;;;7.73;64.08
45523;BME280;31254;51.680;5.394;2023-03-03T16:45:37;102589.72;;;7.64;64.21
45523;BME280;31254;51.680;5.394;2023-03-03T16:48:13;102590.78;;;7.61;64.15
45523;BME280;31254;51.680;5.394;2023-03-03T17:03:57;102621.41;;;7.31;64.25
45523;BME280;31254;51.680;5.394;2023-03-03T17:06:38;102619.84;;;7.27;64.30
45523;BME280;31254;51.680;5.394;2023-03-03T17:12:13;102615.53;;;7.23;64.49
45523;BME280;31254;51.680;5.394;2023-03-03T17:14:57;102619.19;;;7.22;64.50
45523;BME280;31254;51.680;5.394;2023-03-03T17:20:29;102608.06;;;7.11;64.69
45523;BME280;31254;51.680;5.394;2023-03-03T17:28:39;102630.38;;;7.00;64.20
45523;BME280;31254;51.680;5.394;2023-03-03T17:42:42;102650.69;;;6.75;65.14
45523;BME280;31254;51.680;5.394;2023-03-03T17:45:14;102647.16;;;6.73;64.93
45523;BME280;31254;51.680;5.394;2023-03-03T17:53:27;102657.53;;;6.65;65.09
45523;BME280;31254;51.680;5.394;2023-03-03T17:56:23;102662.09;;;6.65;65.19
45523;BME280;31254;51.680;5.394;2023-03-03T18:01:36;102673.88;;;6.64;65.26
45523;BME280;31254;51.680;5.394;2023-03-03T18:07:11;102674.28;;;6.56;64.92
45523;BME280;31254;51.680;5.394;2023-03-03T18:10:20;102680.69;;;6.55;64.71
45523;BME280;31254;51.680;5.394;2023-03-03T18:24:36;102647.09;;;6.22;65.08
45523;BME280;31254;51.680;5.394;2023-03-03T18:37:56;102645.88;;;6.11;65.49
45523;BME280;31254;51.680;5.394;2023-03-03T18:40:33;102686.06;;;6.37;65.64
45523;BME280;31254;51.680;5.394;2023-03-03T18:46:11;102678.97;;;6.35;65.94
45523;BME280;31254;51.680;5.394;2023-03-03T18:54:20;102666.91;;;6.23;65.89
45523;BME280;31254;51.680;5.394;2023-03-03T19:05:05;102679.72;;;6.38;66.12
45523;BME280;31254;51.680;5.394;2023-03-03T19:07:57;102693.28;;;6.38;66.14
45523;BME280;31254;51.680;5.394;2023-03-03T19:18:58;102671.09;;;6.30;66.33
45523;BME280;31254;51.680;5.394;2023-03-03T19:21:36;102693.97;;;6.42;66.42
45523;BME280;31254;51.680;5.394;2023-03-03T19:24:49;102693.03;;;6.43;66.45
45523;BME280;31254;51.680;5.394;2023-03-03T19:43:17;102688.72;;;6.39;66.25
45523;BME280;31254;51.680;5.394;2023-03-03T19:48:51;102697.88;;;6.36;66.39
45523;BME280;31254;51.680;5.394;2023-03-03T19:51:34;102624.44;;;5.87;66.17
45523;BME280;31254;51.680;5.394;2023-03-03T19:57:02;102709.03;;;6.30;66.24
45523;BME280;31254;51.680;5.394;2023-03-03T20:08:36;102683.88;;;6.09;66.44
45523;BME280;31254;51.680;5.394;2023-03-03T20:11:14;102695.16;;;6.19;66.47
45523;BME280;31254;51.680;5.394;2023-03-03T20:16:45;102706.06;;;6.17;66.41
45523;BME280;31254;51.680;5.394;2023-03-03T20:22:22;102711.56;;;6.16;66.54